sensor_id;sensor_type;location;lat;lon;timestamp;temperature;humidity
52765;DHT22;38650;44.536;18.664;2024-03-17T00:02:10;15.00;99.90
52765;DHT22;38650;44.536;18.664;2024-03-17T00:04:36;15.00;99.90
52765;DHT22;38650;44.536;18.664;2024-03-17T00:07:02;14.90;99.90
52765;DHT22;38650;44.536;18.664;2024-03-17T00:09:27;14.90;99.90
52765;DHT22;38650;44.536;18.664;2024-03-17T00:11:54;14.80;99.90
52765;DHT22;38650;44.536;18.664;2024-03-17T00:14:21;14.90;99.90
52765;DHT22;38650;44.536;18.664;2024-03-17T00:16:47;14.90;99.90
52765;DHT22;38650;44.536;18.664;2024-03-17T00:19:14;14.90;99.90
52765;DHT22;38650;44.536;18.664;2024-03-17T00:21:40;14.90;99.90
52765;DHT22;38650;44.536;18.664;2024-03-17T00:24:06;14.90;99.90
52765;DHT22;38650;44.536;18.664;2024-03-17T00:26:32;14.80;99.90
52765;DHT22;38650;44.536;18.664;2024-03-17T00:28:59;14.80;99.90
52765;DHT22;38650;44.536;18.664;2024-03-17T00:31:25;14.80;99.90
52765;DHT22;38650;44.536;18.664;2024-03-17T00:33:54;14.80;99.90
52765;DHT22;38650;44.536;18.664;2024-03-17T00:36:20;14.80;99.90
52765;DHT22;38650;44.536;18.664;2024-03-17T00:38:46;14.70;99.90
52765;DHT22;38650;44.536;18.664;2024-03-17T00:41:11;14.70;99.90
52765;DHT22;38650;44.536;18.664;2024-03-17T00:43:37;14.70;99.90
52765;DHT22;38650;44.536;18.664;2024-03-17T00:46:03;14.70;99.90
52765;DHT22;38650;44.536;18.664;2024-03-17T00:48:29;14.70;99.90
52765;DHT22;38650;44.536;18.664;2024-03-17T00:50:58;14.80;99.90
52765;DHT22;38650;44.536;18.664;2024-03-17T00:53:25;14.70;99.90
52765;DHT22;38650;44.536;18.664;2024-03-17T00:55:54;14.70;99.90
52765;DHT22;38650;44.536;18.664;2024-03-17T00:58:24;14.70;99.90
52765;DHT22;38650;44.536;18.664;2024-03-17T01:00:50;14.60;99.90
52765;DHT22;38650;44.536;18.664;2024-03-17T01:03:16;14.60;99.90
52765;DHT22;38650;44.536;18.664;2024-03-17T01:05:42;14.50;99.90
52765;DHT22;38650;44.536;18.664;2024-03-17T01:08:10;14.30;99.90
52765;DHT22;38650;44.536;18.664;2024-03-17T01:10:42;14.30;99.90
52765;DHT22;38650;44.536;18.664;2024-03-17T01:13:09;14.20;99.90
52765;DHT22;38650;44.536;18.664;2024-03-17T01:15:38;14.30;99.90
52765;DHT22;38650;44.536;18.664;2024-03-17T01:18:05;14.20;99.90
52765;DHT22;38650;44.536;18.664;2024-03-17T01:20:32;14.10;99.90
52765;DHT22;38650;44.536;18.664;2024-03-17T01:22:58;13.90;99.90
52765;DHT22;38650;44.536;18.664;2024-03-17T01:25:24;13.80;99.90
52765;DHT22;38650;44.536;18.664;2024-03-17T01:27:55;13.70;99.90
52765;DHT22;38650;44.536;18.664;2024-03-17T01:30:20;13.60;99.90
52765;DHT22;38650;44.536;18.664;2024-03-17T01:32:46;13.60;99.90
52765;DHT22;38650;44.536;18.664;2024-03-17T01:35:12;13.60;99.90
52765;DHT22;38650;44.536;18.664;2024-03-17T01:37:39;13.50;99.90
52765;DHT22;38650;44.536;18.664;2024-03-17T01:40:06;13.40;99.90
52765;DHT22;38650;44.536;18.664;2024-03-17T01:42:35;13.40;99.90
52765;DHT22;38650;44.536;18.664;2024-03-17T01:45:01;13.40;99.90
52765;DHT22;38650;44.536;18.664;2024-03-17T01:47:27;13.40;99.90
52765;DHT22;38650;44.536;18.664;2024-03-17T01:49:53;13.50;99.90
52765;DHT22;38650;44.536;18.664;2024-03-17T01:52:21;13.50;99.90
52765;DHT22;38650;44.536;18.664;2024-03-17T01:54:46;13.60;99.90
52765;DHT22;38650;44.536;18.664;2024-03-17T01:57:13;13.50;99.90
52765;DHT22;38650;44.536;18.664;2024-03-17T01:59:39;13.60;99.90
52765;DHT22;38650;44.536;18.664;2024-03-17T02:02:05;13.60;99.90
52765;DHT22;38650;44.536;18.664;2024-03-17T02:04:31;13.60;99.90
52765;DHT22;38650;44.536;18.664;2024-03-17T02:06:57;13.60;99.90
52765;DHT22;38650;44.536;18.664;2024-03-17T02:09:23;13.60;99.90
52765;DHT22;38650;44.536;18.664;2024-03-17T02:11:48;13.60;99.90
52765;DHT22;38650;44.536;18.664;2024-03-17T02:14:14;13.50;99.90
52765;DHT22;38650;44.536;18.664;2024-03-17T02:16:43;13.40;99.90
52765;DHT22;38650;44.536;18.664;2024-03-17T02:19:08;13.30;99.90
52765;DHT22;38650;44.536;18.664;2024-03-17T02:21:35;13.30;99.90
52765;DHT22;38650;44.536;18.664;2024-03-17T02:24:00;13.30;99.90
52765;DHT22;38650;44.536;18.664;2024-03-17T02:26:27;13.40;99.90
52765;DHT22;38650;44.536;18.664;2024-03-17T02:28:53;13.60;99.90
52765;DHT22;38650;44.536;18.664;2024-03-17T02:31:18;13.70;99.90
52765;DHT22;38650;44.536;18.664;2024-03-17T02:33:45;13.70;99.90
52765;DHT22;38650;44.536;18.664;2024-03-17T02:36:11;13.90;99.90
52765;DHT22;38650;44.536;18.664;2024-03-17T02:38:40;13.90;99.90
52765;DHT22;38650;44.536;18.664;2024-03-17T02:41:25;13.90;99.90
52765;DHT22;38650;44.536;18.664;2024-03-17T02:43:51;14.00;99.90
52765;DHT22;38650;44.536;18.664;2024-03-17T02:46:18;13.90;99.90
52765;DHT22;38650;44.536;18.664;2024-03-17T02:48:46;13.90;99.90
52765;DHT22;38650;44.536;18.664;2024-03-17T02:51:16;13.80;99.90
52765;DHT22;38650;44.536;18.664;2024-03-17T02:53:43;13.80;99.90
52765;DHT22;38650;44.536;18.664;2024-03-17T02:56:10;13.80;99.90
52765;DHT22;38650;44.536;18.664;2024-03-17T02:58:38;13.70;99.90
52765;DHT22;38650;44.536;18.664;2024-03-17T03:01:05;13.60;99.90
52765;DHT22;38650;44.536;18.664;2024-03-17T03:03:34;13.60;99.90
52765;DHT22;38650;44.536;18.664;2024-03-17T03:06:00;13.50;99.90
52765;DHT22;38650;44.536;18.664;2024-03-17T03:08:30;13.60;99.90
52765;DHT22;38650;44.536;18.664;2024-03-17T03:10:55;13.60;99.90
52765;DHT22;38650;44.536;18.664;2024-03-17T03:13:21;13.70;99.90
52765;DHT22;38650;44.536;18.664;2024-03-17T03:15:48;13.70;99.90
52765;DHT22;38650;44.536;18.664;2024-03-17T03:18:14;13.80;99.90
52765;DHT22;38650;44.536;18.664;2024-03-17T03:20:40;13.80;99.90
52765;DHT22;38650;44.536;18.664;2024-03-17T03:23:06;13.90;99.90
52765;DHT22;38650;44.536;18.664;2024-03-17T03:25:32;13.90;99.90
52765;DHT22;38650;44.536;18.664;2024-03-17T03:27:58;13.90;99.90
52765;DHT22;38650;44.536;18.664;2024-03-17T03:30:24;13.80;99.90
52765;DHT22;38650;44.536;18.664;2024-03-17T03:32:50;13.90;99.90
52765;DHT22;38650;44.536;18.664;2024-03-17T03:35:16;13.90;99.90
52765;DHT22;38650;44.536;18.664;2024-03-17T03:37:42;14.00;99.90
52765;DHT22;38650;44.536;18.664;2024-03-17T03:40:08;14.00;99.90
52765;DHT22;38650;44.536;18.664;2024-03-17T03:42:46;14.00;99.90
52765;DHT22;38650;44.536;18.664;2024-03-17T03:45:12;14.00;99.90
52765;DHT22;38650;44.536;18.664;2024-03-17T03:47:39;14.00;99.90
52765;DHT22;38650;44.536;18.664;2024-03-17T03:50:09;13.90;99.90
52765;DHT22;38650;44.536;18.664;2024-03-17T03:52:36;13.80;99.90
52765;DHT22;38650;44.536;18.664;2024-03-17T03:55:01;13.80;99.90
52765;DHT22;38650;44.536;18.664;2024-03-17T03:57:27;13.80;99.90
52765;DHT22;38650;44.536;18.664;2024-03-17T03:59:55;13.80;99.90
52765;DHT22;38650;44.536;18.664;2024-03-17T04:02:21;13.80;99.90
52765;DHT22;38650;44.536;18.664;2024-03-17T04:04:47;13.80;99.90
52765;DHT22;38650;44.536;18.664;2024-03-17T04:07:15;13.80;99.90
52765;DHT22;38650;44.536;18.664;2024-03-17T04:09:42;13.90;99.90
52765;DHT22;38650;44.536;18.664;2024-03-17T04:12:08;14.00;99.90
52765;DHT22;38650;44.536;18.664;2024-03-17T04:14:33;14.00;99.90
52765;DHT22;38650;44.536;18.664;2024-03-17T04:16:59;14.00;99.90
52765;DHT22;38650;44.536;18.664;2024-03-17T04:19:25;14.00;99.90
52765;DHT22;38650;44.536;18.664;2024-03-17T04:21:51;13.90;99.90
52765;DHT22;38650;44.536;18.664;2024-03-17T04:24:17;13.90;99.90
52765;DHT22;38650;44.536;18.664;2024-03-17T04:26:43;13.90;99.90
52765;DHT22;38650;44.536;18.664;2024-03-17T04:29:09;13.90;99.90
52765;DHT22;38650;44.536;18.664;2024-03-17T04:31:35;13.90;99.90
52765;DHT22;38650;44.536;18.664;2024-03-17T04:34:00;13.90;99.90
52765;DHT22;38650;44.536;18.664;2024-03-17T04:36:26;13.90;99.90
52765;DHT22;38650;44.536;18.664;2024-03-17T04:38:52;14.00;99.90
52765;DHT22;38650;44.536;18.664;2024-03-17T04:41:19;14.00;99.90
52765;DHT22;38650;44.536;18.664;2024-03-17T04:43:45;14.00;99.90
52765;DHT22;38650;44.536;18.664;2024-03-17T04:46:11;14.00;99.90
52765;DHT22;38650;44.536;18.664;2024-03-17T04:48:39;14.00;99.90
52765;DHT22;38650;44.536;18.664;2024-03-17T04:51:05;14.00;99.90
52765;DHT22;38650;44.536;18.664;2024-03-17T04:53:30;14.00;99.90
52765;DHT22;38650;44.536;18.664;2024-03-17T04:56:00;14.00;99.90
52765;DHT22;38650;44.536;18.664;2024-03-17T04:58:26;13.90;99.90
52765;DHT22;38650;44.536;18.664;2024-03-17T05:00:51;13.70;99.90
52765;DHT22;38650;44.536;18.664;2024-03-17T05:03:17;13.70;99.90
52765;DHT22;38650;44.536;18.664;2024-03-17T05:05:43;13.70;99.90
52765;DHT22;38650;44.536;18.664;2024-03-17T05:08:08;13.70;99.90
52765;DHT22;38650;44.536;18.664;2024-03-17T05:10:34;13.80;99.90
52765;DHT22;38650;44.536;18.664;2024-03-17T05:13:00;13.80;99.90
52765;DHT22;38650;44.536;18.664;2024-03-17T05:15:25;13.70;99.90
52765;DHT22;38650;44.536;18.664;2024-03-17T05:17:51;13.80;99.90
52765;DHT22;38650;44.536;18.664;2024-03-17T05:20:17;13.80;99.90
52765;DHT22;38650;44.536;18.664;2024-03-17T05:22:43;13.80;99.90
52765;DHT22;38650;44.536;18.664;2024-03-17T05:25:11;13.60;99.90
52765;DHT22;38650;44.536;18.664;2024-03-17T05:27:38;13.60;99.90
52765;DHT22;38650;44.536;18.664;2024-03-17T05:30:04;13.60;99.90
52765;DHT22;38650;44.536;18.664;2024-03-17T05:32:30;13.70;99.90
52765;DHT22;38650;44.536;18.664;2024-03-17T05:34:56;13.80;99.90
52765;DHT22;38650;44.536;18.664;2024-03-17T05:37:21;13.80;99.90
52765;DHT22;38650;44.536;18.664;2024-03-17T05:39:47;13.90;99.90
52765;DHT22;38650;44.536;18.664;2024-03-17T05:42:13;13.90;99.90
52765;DHT22;38650;44.536;18.664;2024-03-17T05:44:38;13.90;99.90
52765;DHT22;38650;44.536;18.664;2024-03-17T05:47:16;13.90;99.90
52765;DHT22;38650;44.536;18.664;2024-03-17T05:49:42;13.90;99.90
52765;DHT22;38650;44.536;18.664;2024-03-17T05:52:08;14.00;99.90
52765;DHT22;38650;44.536;18.664;2024-03-17T05:54:34;14.00;99.90
52765;DHT22;38650;44.536;18.664;2024-03-17T05:56:59;14.00;99.90
52765;DHT22;38650;44.536;18.664;2024-03-17T05:59:25;14.00;99.90
52765;DHT22;38650;44.536;18.664;2024-03-17T06:01:51;14.00;99.90
52765;DHT22;38650;44.536;18.664;2024-03-17T06:04:17;14.10;99.90
52765;DHT22;38650;44.536;18.664;2024-03-17T06:06:43;14.10;99.90
52765;DHT22;38650;44.536;18.664;2024-03-17T06:09:08;14.10;99.90
52765;DHT22;38650;44.536;18.664;2024-03-17T06:11:36;14.00;99.90
52765;DHT22;38650;44.536;18.664;2024-03-17T06:14:02;14.10;99.90
52765;DHT22;38650;44.536;18.664;2024-03-17T06:16:30;14.10;99.90
52765;DHT22;38650;44.536;18.664;2024-03-17T06:18:56;14.10;99.90
52765;DHT22;38650;44.536;18.664;2024-03-17T06:21:22;14.20;99.90
52765;DHT22;38650;44.536;18.664;2024-03-17T06:23:47;14.20;99.90
52765;DHT22;38650;44.536;18.664;2024-03-17T06:26:13;14.20;99.90
52765;DHT22;38650;44.536;18.664;2024-03-17T06:28:39;14.20;99.90
52765;DHT22;38650;44.536;18.664;2024-03-17T06:31:05;14.20;99.90
52765;DHT22;38650;44.536;18.664;2024-03-17T06:33:32;14.20;99.90
52765;DHT22;38650;44.536;18.664;2024-03-17T06:36:02;14.20;99.90
52765;DHT22;38650;44.536;18.664;2024-03-17T06:38:30;14.30;99.90
52765;DHT22;38650;44.536;18.664;2024-03-17T06:40:56;14.30;99.90
52765;DHT22;38650;44.536;18.664;2024-03-17T06:43:21;14.30;99.90
52765;DHT22;38650;44.536;18.664;2024-03-17T06:45:54;14.40;99.90
52765;DHT22;38650;44.536;18.664;2024-03-17T06:48:20;14.40;99.90
52765;DHT22;38650;44.536;18.664;2024-03-17T06:50:46;14.50;99.90
52765;DHT22;38650;44.536;18.664;2024-03-17T06:53:12;14.50;99.90
52765;DHT22;38650;44.536;18.664;2024-03-17T06:55:38;14.50;99.90
52765;DHT22;38650;44.536;18.664;2024-03-17T06:58:04;14.50;99.90
52765;DHT22;38650;44.536;18.664;2024-03-17T07:00:29;14.40;99.90
52765;DHT22;38650;44.536;18.664;2024-03-17T07:02:55;14.40;99.90
52765;DHT22;38650;44.536;18.664;2024-03-17T07:05:21;14.40;99.90
52765;DHT22;38650;44.536;18.664;2024-03-17T07:07:47;14.40;99.90
52765;DHT22;38650;44.536;18.664;2024-03-17T07:10:12;14.50;99.90
52765;DHT22;38650;44.536;18.664;2024-03-17T07:12:39;14.50;99.90
52765;DHT22;38650;44.536;18.664;2024-03-17T07:15:05;14.50;99.90
52765;DHT22;38650;44.536;18.664;2024-03-17T07:17:32;14.50;99.90
52765;DHT22;38650;44.536;18.664;2024-03-17T07:19:57;14.70;99.90
52765;DHT22;38650;44.536;18.664;2024-03-17T07:22:23;14.80;99.90
52765;DHT22;38650;44.536;18.664;2024-03-17T07:24:52;15.00;99.90
52765;DHT22;38650;44.536;18.664;2024-03-17T07:27:21;15.20;99.90
52765;DHT22;38650;44.536;18.664;2024-03-17T07:29:47;15.30;99.90
52765;DHT22;38650;44.536;18.664;2024-03-17T07:32:12;15.30;99.90
52765;DHT22;38650;44.536;18.664;2024-03-17T07:34:38;15.40;99.90
52765;DHT22;38650;44.536;18.664;2024-03-17T07:37:04;15.40;99.90
52765;DHT22;38650;44.536;18.664;2024-03-17T07:39:32;15.40;99.90
52765;DHT22;38650;44.536;18.664;2024-03-17T07:42:02;15.20;99.90
52765;DHT22;38650;44.536;18.664;2024-03-17T07:44:28;15.10;99.90
52765;DHT22;38650;44.536;18.664;2024-03-17T07:46:59;15.10;99.90
52765;DHT22;38650;44.536;18.664;2024-03-17T07:49:24;15.20;99.90
52765;DHT22;38650;44.536;18.664;2024-03-17T07:51:50;15.40;99.90
52765;DHT22;38650;44.536;18.664;2024-03-17T07:54:15;15.60;99.90
52765;DHT22;38650;44.536;18.664;2024-03-17T07:56:41;15.80;99.90
52765;DHT22;38650;44.536;18.664;2024-03-17T07:59:07;15.80;99.90
52765;DHT22;38650;44.536;18.664;2024-03-17T08:01:42;15.70;99.90
52765;DHT22;38650;44.536;18.664;2024-03-17T08:04:08;15.80;99.90
52765;DHT22;38650;44.536;18.664;2024-03-17T08:06:33;15.80;99.90
52765;DHT22;38650;44.536;18.664;2024-03-17T08:08:59;15.80;99.90
52765;DHT22;38650;44.536;18.664;2024-03-17T08:11:25;16.00;99.90
52765;DHT22;38650;44.536;18.664;2024-03-17T08:13:51;16.10;99.90
52765;DHT22;38650;44.536;18.664;2024-03-17T08:16:16;16.20;99.90
52765;DHT22;38650;44.536;18.664;2024-03-17T08:18:45;16.40;99.90
52765;DHT22;38650;44.536;18.664;2024-03-17T08:21:11;16.40;99.90
52765;DHT22;38650;44.536;18.664;2024-03-17T08:23:37;16.60;99.90
52765;DHT22;38650;44.536;18.664;2024-03-17T08:26:08;16.70;99.90
52765;DHT22;38650;44.536;18.664;2024-03-17T08:28:34;16.80;99.90
52765;DHT22;38650;44.536;18.664;2024-03-17T08:31:01;17.80;99.40
52765;DHT22;38650;44.536;18.664;2024-03-17T08:33:28;18.10;96.80
52765;DHT22;38650;44.536;18.664;2024-03-17T08:36:02;17.90;95.20
52765;DHT22;38650;44.536;18.664;2024-03-17T08:38:29;17.50;95.70
52765;DHT22;38650;44.536;18.664;2024-03-17T08:40:55;17.20;97.40
52765;DHT22;38650;44.536;18.664;2024-03-17T08:43:22;17.10;98.70
52765;DHT22;38650;44.536;18.664;2024-03-17T08:45:58;17.00;98.70
52765;DHT22;38650;44.536;18.664;2024-03-17T08:48:27;16.90;98.10
52765;DHT22;38650;44.536;18.664;2024-03-17T08:50:54;16.90;97.50
52765;DHT22;38650;44.536;18.664;2024-03-17T08:53:21;16.90;97.90
52765;DHT22;38650;44.536;18.664;2024-03-17T08:55:47;17.00;99.50
52765;DHT22;38650;44.536;18.664;2024-03-17T08:58:13;16.90;98.40
52765;DHT22;38650;44.536;18.664;2024-03-17T09:00:38;16.90;99.00
52765;DHT22;38650;44.536;18.664;2024-03-17T09:03:06;17.00;98.20
52765;DHT22;38650;44.536;18.664;2024-03-17T09:05:35;17.20;97.20
52765;DHT22;38650;44.536;18.664;2024-03-17T09:08:01;17.20;97.80
52765;DHT22;38650;44.536;18.664;2024-03-17T09:10:26;17.30;97.20
52765;DHT22;38650;44.536;18.664;2024-03-17T09:12:52;17.40;95.60
52765;DHT22;38650;44.536;18.664;2024-03-17T09:15:18;17.60;95.20
52765;DHT22;38650;44.536;18.664;2024-03-17T09:17:43;17.60;95.40
52765;DHT22;38650;44.536;18.664;2024-03-17T09:20:11;17.40;95.80
52765;DHT22;38650;44.536;18.664;2024-03-17T09:22:38;17.20;95.80
52765;DHT22;38650;44.536;18.664;2024-03-17T09:25:08;17.40;96.50
52765;DHT22;38650;44.536;18.664;2024-03-17T09:27:35;17.70;95.80
52765;DHT22;38650;44.536;18.664;2024-03-17T09:30:06;18.00;94.00
52765;DHT22;38650;44.536;18.664;2024-03-17T09:32:35;18.20;92.00
52765;DHT22;38650;44.536;18.664;2024-03-17T09:35:01;18.30;93.80
52765;DHT22;38650;44.536;18.664;2024-03-17T09:37:28;18.40;92.30
52765;DHT22;38650;44.536;18.664;2024-03-17T09:39:54;18.60;91.50
52765;DHT22;38650;44.536;18.664;2024-03-17T09:42:22;18.80;87.50
52765;DHT22;38650;44.536;18.664;2024-03-17T09:44:50;18.80;89.10
52765;DHT22;38650;44.536;18.664;2024-03-17T09:47:21;18.90;85.30
52765;DHT22;38650;44.536;18.664;2024-03-17T09:49:48;19.10;72.30
52765;DHT22;38650;44.536;18.664;2024-03-17T09:52:22;19.30;65.50
52765;DHT22;38650;44.536;18.664;2024-03-17T09:54:59;19.50;67.40
52765;DHT22;38650;44.536;18.664;2024-03-17T09:57:26;19.60;64.60
52765;DHT22;38650;44.536;18.664;2024-03-17T09:59:53;19.80;58.80
52765;DHT22;38650;44.536;18.664;2024-03-17T10:02:22;19.80;70.90
52765;DHT22;38650;44.536;18.664;2024-03-17T10:04:48;20.00;64.80
52765;DHT22;38650;44.536;18.664;2024-03-17T10:07:14;19.90;64.40
52765;DHT22;38650;44.536;18.664;2024-03-17T10:09:42;20.00;65.40
52765;DHT22;38650;44.536;18.664;2024-03-17T10:12:32;20.10;61.10
52765;DHT22;38650;44.536;18.664;2024-03-17T10:14:59;20.10;60.80
52765;DHT22;38650;44.536;18.664;2024-03-17T10:17:34;20.10;57.30
52765;DHT22;38650;44.536;18.664;2024-03-17T10:20:21;20.30;57.90
52765;DHT22;38650;44.536;18.664;2024-03-17T10:23:06;20.60;56.90
52765;DHT22;38650;44.536;18.664;2024-03-17T10:25:38;21.50;56.30
52765;DHT22;38650;44.536;18.664;2024-03-17T10:28:13;22.20;54.10
52765;DHT22;38650;44.536;18.664;2024-03-17T10:30:40;22.70;46.90
52765;DHT22;38650;44.536;18.664;2024-03-17T10:33:06;22.70;45.90
52765;DHT22;38650;44.536;18.664;2024-03-17T10:35:38;22.80;47.50
52765;DHT22;38650;44.536;18.664;2024-03-17T10:38:09;23.30;42.30
52765;DHT22;38650;44.536;18.664;2024-03-17T10:40:37;23.30;40.50
52765;DHT22;38650;44.536;18.664;2024-03-17T10:43:05;22.80;40.80
52765;DHT22;38650;44.536;18.664;2024-03-17T10:45:32;22.50;42.00
52765;DHT22;38650;44.536;18.664;2024-03-17T10:48:03;22.20;39.60
52765;DHT22;38650;44.536;18.664;2024-03-17T10:50:38;22.10;41.60
52765;DHT22;38650;44.536;18.664;2024-03-17T10:53:06;22.10;41.80
52765;DHT22;38650;44.536;18.664;2024-03-17T10:55:44;21.70;43.70
52765;DHT22;38650;44.536;18.664;2024-03-17T10:58:24;21.40;47.00
52765;DHT22;38650;44.536;18.664;2024-03-17T11:00:56;21.00;46.50
52765;DHT22;38650;44.536;18.664;2024-03-17T11:03:23;20.80;47.80
52765;DHT22;38650;44.536;18.664;2024-03-17T11:05:49;20.90;48.40
52765;DHT22;38650;44.536;18.664;2024-03-17T11:08:18;21.20;49.50
52765;DHT22;38650;44.536;18.664;2024-03-17T11:10:52;21.40;46.30
52765;DHT22;38650;44.536;18.664;2024-03-17T11:13:28;21.30;47.10
52765;DHT22;38650;44.536;18.664;2024-03-17T11:15:56;21.10;46.00
52765;DHT22;38650;44.536;18.664;2024-03-17T11:21:06;21.30;46.90
52765;DHT22;38650;44.536;18.664;2024-03-17T11:23:41;21.20;45.20
52765;DHT22;38650;44.536;18.664;2024-03-17T11:26:08;21.00;45.90
52765;DHT22;38650;44.536;18.664;2024-03-17T11:31:44;21.80;42.50
52765;DHT22;38650;44.536;18.664;2024-03-17T11:34:31;22.60;40.80
52765;DHT22;38650;44.536;18.664;2024-03-17T11:36:59;23.00;40.70
52765;DHT22;38650;44.536;18.664;2024-03-17T11:39:54;23.30;43.20
52765;DHT22;38650;44.536;18.664;2024-03-17T11:42:24;23.70;41.10
52765;DHT22;38650;44.536;18.664;2024-03-17T11:45:06;24.20;40.90
52765;DHT22;38650;44.536;18.664;2024-03-17T11:47:41;24.80;38.00
52765;DHT22;38650;44.536;18.664;2024-03-17T11:50:10;25.00;37.70
52765;DHT22;38650;44.536;18.664;2024-03-17T11:52:38;24.50;36.20
52765;DHT22;38650;44.536;18.664;2024-03-17T11:55:16;24.20;38.90
52765;DHT22;38650;44.536;18.664;2024-03-17T11:57:42;23.40;36.70
52765;DHT22;38650;44.536;18.664;2024-03-17T12:00:21;23.10;37.50
52765;DHT22;38650;44.536;18.664;2024-03-17T12:02:49;23.00;38.70
52765;DHT22;38650;44.536;18.664;2024-03-17T12:05:15;22.80;38.40
52765;DHT22;38650;44.536;18.664;2024-03-17T12:07:44;22.70;38.80
52765;DHT22;38650;44.536;18.664;2024-03-17T12:10:13;22.70;39.10
52765;DHT22;38650;44.536;18.664;2024-03-17T12:12:47;22.50;38.80
52765;DHT22;38650;44.536;18.664;2024-03-17T12:15:17;22.40;39.80
52765;DHT22;38650;44.536;18.664;2024-03-17T12:17:44;22.20;39.60
52765;DHT22;38650;44.536;18.664;2024-03-17T12:20:20;22.00;39.50
52765;DHT22;38650;44.536;18.664;2024-03-17T12:22:47;21.60;40.10
52765;DHT22;38650;44.536;18.664;2024-03-17T12:25:20;21.40;40.40
52765;DHT22;38650;44.536;18.664;2024-03-17T12:27:46;21.50;40.60
52765;DHT22;38650;44.536;18.664;2024-03-17T12:30:14;21.80;41.20
52765;DHT22;38650;44.536;18.664;2024-03-17T12:32:40;22.40;42.00
52765;DHT22;38650;44.536;18.664;2024-03-17T12:35:13;22.60;40.30
52765;DHT22;38650;44.536;18.664;2024-03-17T12:37:39;22.60;38.90
52765;DHT22;38650;44.536;18.664;2024-03-17T12:40:18;22.50;38.20
52765;DHT22;38650;44.536;18.664;2024-03-17T12:42:47;22.50;38.30
52765;DHT22;38650;44.536;18.664;2024-03-17T12:45:14;22.60;38.60
52765;DHT22;38650;44.536;18.664;2024-03-17T12:47:40;22.60;38.40
52765;DHT22;38650;44.536;18.664;2024-03-17T12:50:12;22.50;39.40
52765;DHT22;38650;44.536;18.664;2024-03-17T12:52:40;22.30;38.50
52765;DHT22;38650;44.536;18.664;2024-03-17T12:55:09;22.10;39.00
52765;DHT22;38650;44.536;18.664;2024-03-17T13:00:47;21.90;41.70
52765;DHT22;38650;44.536;18.664;2024-03-17T13:03:24;22.00;40.90
52765;DHT22;38650;44.536;18.664;2024-03-17T13:05:50;22.50;43.90
52765;DHT22;38650;44.536;18.664;2024-03-17T13:08:17;23.20;38.90
52765;DHT22;38650;44.536;18.664;2024-03-17T13:10:43;23.80;35.60
52765;DHT22;38650;44.536;18.664;2024-03-17T13:13:09;24.10;35.60
52765;DHT22;38650;44.536;18.664;2024-03-17T13:15:36;24.10;37.10
52765;DHT22;38650;44.536;18.664;2024-03-17T13:18:03;24.40;37.20
52765;DHT22;38650;44.536;18.664;2024-03-17T13:20:30;24.80;35.50
52765;DHT22;38650;44.536;18.664;2024-03-17T13:22:57;25.00;36.30
52765;DHT22;38650;44.536;18.664;2024-03-17T13:25:26;24.70;38.00
52765;DHT22;38650;44.536;18.664;2024-03-17T13:27:55;25.00;37.20
52765;DHT22;38650;44.536;18.664;2024-03-17T13:30:22;24.80;36.10
52765;DHT22;38650;44.536;18.664;2024-03-17T13:32:49;24.60;36.70
52765;DHT22;38650;44.536;18.664;2024-03-17T13:35:22;24.40;36.50
52765;DHT22;38650;44.536;18.664;2024-03-17T13:37:49;24.30;35.60
52765;DHT22;38650;44.536;18.664;2024-03-17T13:40:16;24.10;34.50
52765;DHT22;38650;44.536;18.664;2024-03-17T13:42:44;23.70;36.20
52765;DHT22;38650;44.536;18.664;2024-03-17T13:45:11;23.70;36.70
52765;DHT22;38650;44.536;18.664;2024-03-17T13:47:38;23.60;34.90
52765;DHT22;38650;44.536;18.664;2024-03-17T13:50:04;23.50;36.00
52765;DHT22;38650;44.536;18.664;2024-03-17T13:52:44;23.50;38.70
52765;DHT22;38650;44.536;18.664;2024-03-17T13:57:46;23.10;37.70
52765;DHT22;38650;44.536;18.664;2024-03-17T14:00:13;23.10;37.70
52765;DHT22;38650;44.536;18.664;2024-03-17T14:02:50;22.70;36.90
52765;DHT22;38650;44.536;18.664;2024-03-17T14:05:17;22.50;35.90
52765;DHT22;38650;44.536;18.664;2024-03-17T14:07:43;22.80;36.90
52765;DHT22;38650;44.536;18.664;2024-03-17T14:10:11;23.20;35.20
52765;DHT22;38650;44.536;18.664;2024-03-17T14:12:38;23.20;35.00
52765;DHT22;38650;44.536;18.664;2024-03-17T14:15:05;23.20;36.50
52765;DHT22;38650;44.536;18.664;2024-03-17T14:17:31;23.10;35.60
52765;DHT22;38650;44.536;18.664;2024-03-17T14:19:58;22.80;35.50
52765;DHT22;38650;44.536;18.664;2024-03-17T14:22:24;22.70;35.50
52765;DHT22;38650;44.536;18.664;2024-03-17T14:24:49;22.70;35.60
52765;DHT22;38650;44.536;18.664;2024-03-17T14:27:16;22.80;34.50
52765;DHT22;38650;44.536;18.664;2024-03-17T14:29:43;22.90;34.80
52765;DHT22;38650;44.536;18.664;2024-03-17T14:32:09;23.30;34.40
52765;DHT22;38650;44.536;18.664;2024-03-17T14:34:34;23.30;33.70
52765;DHT22;38650;44.536;18.664;2024-03-17T14:37:02;23.10;33.20
52765;DHT22;38650;44.536;18.664;2024-03-17T14:39:29;23.10;34.90
52765;DHT22;38650;44.536;18.664;2024-03-17T14:41:55;23.20;36.40
52765;DHT22;38650;44.536;18.664;2024-03-17T14:44:21;23.30;35.30
52765;DHT22;38650;44.536;18.664;2024-03-17T14:46:48;23.30;35.70
52765;DHT22;38650;44.536;18.664;2024-03-17T14:49:17;23.40;34.00
52765;DHT22;38650;44.536;18.664;2024-03-17T14:51:42;23.40;33.80
52765;DHT22;38650;44.536;18.664;2024-03-17T14:54:09;23.20;35.10
52765;DHT22;38650;44.536;18.664;2024-03-17T14:56:36;23.00;34.50
52765;DHT22;38650;44.536;18.664;2024-03-17T14:59:01;22.70;33.10
52765;DHT22;38650;44.536;18.664;2024-03-17T15:01:27;22.70;35.10
52765;DHT22;38650;44.536;18.664;2024-03-17T15:03:55;22.90;33.40
52765;DHT22;38650;44.536;18.664;2024-03-17T15:06:21;22.40;34.90
52765;DHT22;38650;44.536;18.664;2024-03-17T15:08:47;22.20;35.90
52765;DHT22;38650;44.536;18.664;2024-03-17T15:11:13;21.80;37.40
52765;DHT22;38650;44.536;18.664;2024-03-17T15:13:39;21.50;39.50
52765;DHT22;38650;44.536;18.664;2024-03-17T15:16:07;21.20;41.10
52765;DHT22;38650;44.536;18.664;2024-03-17T15:18:33;21.10;41.10
52765;DHT22;38650;44.536;18.664;2024-03-17T15:21:02;20.90;40.50
52765;DHT22;38650;44.536;18.664;2024-03-17T15:23:30;20.70;40.60
52765;DHT22;38650;44.536;18.664;2024-03-17T15:26:03;20.60;41.20
52765;DHT22;38650;44.536;18.664;2024-03-17T15:28:34;20.40;41.00
52765;DHT22;38650;44.536;18.664;2024-03-17T15:31:03;20.30;41.10